createdAt,value
2017-09-16T00:00:34.034Z,90.40
2017-09-16T00:03:01.621Z,90.40
2017-09-16T00:05:29.467Z,90.50
2017-09-16T00:07:57.817Z,90.50
2017-09-16T00:10:26.181Z,90.50
2017-09-16T00:12:54.593Z,90.40
2017-09-16T00:15:22.192Z,90.40
2017-09-16T00:17:50.548Z,90.60
2017-09-16T00:20:19.080Z,91.10
2017-09-16T00:22:46.658Z,91.10
2017-09-16T00:25:15.003Z,91.30
2017-09-16T00:27:42.631Z,91.30
2017-09-16T00:30:10.202Z,91.30
2017-09-16T00:32:37.781Z,91.30
2017-09-16T00:35:05.506Z,91.40
2017-09-16T00:37:33.846Z,91.50
2017-09-16T00:40:01.423Z,91.50
2017-09-16T00:42:29.177Z,91.40
2017-09-16T00:44:56.765Z,91.50
2017-09-16T00:47:24.330Z,91.50
2017-09-16T00:49:51.980Z,91.50
2017-09-16T00:52:19.606Z,91.60
2017-09-16T00:54:47.222Z,91.90
2017-09-16T00:57:14.867Z,91.90
2017-09-16T00:59:42.460Z,91.60
2017-09-16T01:02:10.054Z,91.50
2017-09-16T01:04:37.683Z,92.00
2017-09-16T01:07:05.257Z,91.60
2017-09-16T01:09:32.853Z,91.60
2017-09-16T01:12:01.265Z,91.70
2017-09-16T01:14:28.838Z,91.70
2017-09-16T01:16:56.425Z,91.70
2017-09-16T01:19:24.064Z,91.60
2017-09-16T01:21:51.634Z,91.60
2017-09-16T01:24:19.220Z,91.70
2017-09-16T01:26:46.872Z,91.70
2017-09-16T01:29:15.224Z,91.80
2017-09-16T01:31:42.802Z,91.70
2017-09-16T01:34:10.552Z,91.80
2017-09-16T01:36:38.142Z,91.80
2017-09-16T01:39:05.746Z,91.90
2017-09-16T01:41:33.389Z,91.80
2017-09-16T01:44:00.976Z,91.80
2017-09-16T01:46:28.570Z,91.90
2017-09-16T01:48:56.256Z,91.90
2017-09-16T01:51:23.845Z,91.90
2017-09-16T01:53:52.191Z,91.80
2017-09-16T01:56:21.326Z,92.10
2017-09-16T01:58:48.903Z,91.80
2017-09-16T02:01:17.982Z,91.80
2017-09-16T02:03:45.620Z,91.80
2017-09-16T02:06:13.209Z,91.80
2017-09-16T02:08:41.565Z,91.90
2017-09-16T02:11:09.969Z,91.90
2017-09-16T02:13:37.558Z,91.90
2017-09-16T02:16:05.141Z,91.90
2017-09-16T02:18:32.770Z,91.90
2017-09-16T02:21:00.356Z,91.90
2017-09-16T02:23:27.940Z,91.70
2017-09-16T02:25:56.537Z,91.80
2017-09-16T02:28:24.116Z,91.80
2017-09-16T02:30:51.704Z,91.70
2017-09-16T02:33:20.178Z,91.80
2017-09-16T02:35:47.771Z,91.80
2017-09-16T02:38:15.357Z,91.70
2017-09-16T02:40:43.880Z,91.70
2017-09-16T02:43:11.446Z,91.70
2017-09-16T02:45:39.024Z,91.70
2017-09-16T02:48:06.653Z,91.70
2017-09-16T02:50:34.991Z,91.70
2017-09-16T02:53:02.558Z,91.70
2017-09-16T02:55:30.969Z,91.70
2017-09-16T02:57:58.556Z,91.70
2017-09-16T03:00:26.150Z,91.70
2017-09-16T03:02:53.803Z,91.60
2017-09-16T03:05:21.384Z,91.70
2017-09-16T03:07:49.060Z,91.70
2017-09-16T03:10:16.675Z,91.70
2017-09-16T03:12:44.254Z,91.70
2017-09-16T03:15:11.838Z,91.70
2017-09-16T03:17:39.458Z,91.70
2017-09-16T03:20:07.031Z,92.00
2017-09-16T03:22:34.616Z,91.70
2017-09-16T03:25:02.999Z,91.70
2017-09-16T03:27:30.585Z,91.70
2017-09-16T03:29:58.281Z,91.60
2017-09-16T03:32:25.905Z,91.50
2017-09-16T03:34:54.238Z,91.50
2017-09-16T03:37:21.807Z,91.40
2017-09-16T03:39:50.206Z,91.50
2017-09-16T03:42:17.780Z,91.50
2017-09-16T03:44:45.369Z,91.40
2017-09-16T03:47:13.778Z,91.50
2017-09-16T03:49:41.360Z,91.40
2017-09-16T03:52:09.023Z,91.50
2017-09-16T03:54:37.588Z,91.40
2017-09-16T03:57:05.930Z,91.40
2017-09-16T03:59:35.016Z,91.30
2017-09-16T04:02:15.265Z,91.10
2017-09-16T04:04:43.607Z,91.10
2017-09-16T04:07:11.179Z,91.10
2017-09-16T04:09:38.817Z,91.20
2017-09-16T04:12:07.150Z,91.10
2017-09-16T04:14:34.732Z,91.10
2017-09-16T04:17:02.388Z,91.20
2017-09-16T04:19:29.982Z,91.30
2017-09-16T04:21:57.572Z,91.20
2017-09-16T04:24:25.206Z,91.20
2017-09-16T04:26:53.556Z,91.70
2017-09-16T04:29:21.894Z,91.40
2017-09-16T04:31:50.395Z,91.20
2017-09-16T04:34:18.733Z,91.30
2017-09-16T04:36:46.312Z,91.30
2017-09-16T04:39:13.935Z,91.30
2017-09-16T04:41:42.323Z,91.40
2017-09-16T04:44:10.013Z,91.30
2017-09-16T04:46:38.311Z,91.30
2017-09-16T04:49:06.665Z,91.60
2017-09-16T04:51:36.558Z,91.30
2017-09-16T04:54:04.359Z,91.30
2017-09-16T04:56:31.961Z,91.40
2017-09-16T04:58:59.723Z,91.30
2017-09-16T05:01:27.360Z,91.30
2017-09-16T05:03:55.712Z,91.20
2017-09-16T05:06:24.060Z,91.10
2017-09-16T05:08:51.698Z,91.10
2017-09-16T05:11:19.275Z,91.00
2017-09-16T05:13:46.939Z,90.90
2017-09-16T05:16:14.704Z,90.90
2017-09-16T05:18:42.293Z,91.00
2017-09-16T05:21:09.877Z,91.10
2017-09-16T05:23:37.832Z,91.00
2017-09-16T05:26:05.712Z,91.00
2017-09-16T05:28:33.282Z,90.70
2017-09-16T05:31:00.924Z,90.70
2017-09-16T05:33:29.275Z,90.60
2017-09-16T05:35:56.851Z,90.60
2017-09-16T05:38:25.262Z,90.50
2017-09-16T05:40:52.850Z,90.50
2017-09-16T05:43:21.186Z,90.40
2017-09-16T05:45:48.983Z,90.30
2017-09-16T05:48:16.562Z,90.40
2017-09-16T05:50:44.154Z,90.50
2017-09-16T05:53:12.542Z,90.60
2017-09-16T05:55:40.120Z,90.60
2017-09-16T05:58:07.695Z,91.40
2017-09-16T06:00:36.113Z,89.40
2017-09-16T06:03:03.705Z,89.40
2017-09-16T06:05:31.278Z,90.30
2017-09-16T06:07:58.895Z,90.40
2017-09-16T06:10:27.234Z,90.50
2017-09-16T06:12:54.829Z,90.50
2017-09-16T06:15:22.465Z,90.60
2017-09-16T06:17:50.053Z,90.60
2017-09-16T06:20:17.640Z,90.80
2017-09-16T06:22:46.118Z,90.70
2017-09-16T06:25:13.691Z,90.70
2017-09-16T06:27:41.289Z,90.70
2017-09-16T06:30:09.778Z,90.60
2017-09-16T06:32:37.463Z,90.60
2017-09-16T06:35:05.346Z,90.40
2017-09-16T06:37:34.026Z,90.50
2017-09-16T06:40:02.385Z,90.10
2017-09-16T06:42:30.741Z,90.20
2017-09-16T06:44:59.165Z,90.10
2017-09-16T06:47:26.738Z,90.10
2017-09-16T06:49:54.332Z,90.10
2017-09-16T06:52:21.976Z,90.00
2017-09-16T06:54:49.551Z,90.10
2017-09-16T06:57:17.137Z,90.00
2017-09-16T06:59:45.537Z,89.70
2017-09-16T07:02:13.133Z,89.70
2017-09-16T07:04:41.474Z,89.60
2017-09-16T07:07:09.107Z,89.40
2017-09-16T07:09:36.701Z,89.10
2017-09-16T07:12:04.296Z,89.50
2017-09-16T07:14:31.953Z,89.20
2017-09-16T07:16:59.550Z,89.20
2017-09-16T07:19:27.131Z,88.90
2017-09-16T07:21:54.779Z,89.20
2017-09-16T07:24:22.382Z,88.90
2017-09-16T07:26:49.959Z,88.70
2017-09-16T07:29:17.595Z,88.70
2017-09-16T07:31:45.183Z,88.40
2017-09-16T07:34:13.548Z,89.00
2017-09-16T07:36:41.948Z,89.00
2017-09-16T07:39:09.525Z,88.80
2017-09-16T07:41:37.117Z,88.70
2017-09-16T07:44:04.747Z,88.50
2017-09-16T07:46:33.104Z,88.20
2017-09-16T07:49:01.461Z,88.20
2017-09-16T07:51:29.331Z,88.10
2017-09-16T07:53:56.939Z,88.20
2017-09-16T07:56:25.292Z,88.00
2017-09-16T07:58:53.050Z,88.00
2017-09-16T08:01:20.648Z,87.80
2017-09-16T08:03:48.304Z,87.60
2017-09-16T08:06:16.057Z,87.50
2017-09-16T08:08:43.634Z,87.10
2017-09-16T08:11:11.233Z,87.10
2017-09-16T08:13:39.054Z,86.80
2017-09-16T08:16:07.399Z,86.50
2017-09-16T08:18:34.979Z,86.40
2017-09-16T08:21:02.640Z,85.60
2017-09-16T08:23:30.233Z,85.30
2017-09-16T08:25:57.831Z,85.30
2017-09-16T08:28:25.468Z,84.70
2017-09-16T08:30:53.055Z,84.00
2017-09-16T08:33:20.638Z,83.60
2017-09-16T08:35:48.269Z,83.20
2017-09-16T08:38:16.701Z,83.80
2017-09-16T08:40:44.302Z,83.80
2017-09-16T08:43:11.930Z,83.60
2017-09-16T08:45:39.541Z,83.40
2017-09-16T08:48:07.927Z,82.70
2017-09-16T08:50:36.431Z,82.40
2017-09-16T08:53:04.015Z,82.40
2017-09-16T08:55:31.602Z,81.80
2017-09-16T08:57:59.235Z,82.20
2017-09-16T09:00:26.832Z,82.10
2017-09-16T09:02:54.418Z,83.90
2017-09-16T09:05:22.832Z,80.30
2017-09-16T09:07:50.415Z,80.30
2017-09-16T09:10:18.773Z,79.40
2017-09-16T09:12:47.178Z,79.70
2017-09-16T09:15:14.772Z,79.50
2017-09-16T09:17:42.368Z,78.40
2017-09-16T09:20:10.141Z,78.40
2017-09-16T09:22:37.736Z,78.20
2017-09-16T09:25:05.346Z,78.70
2017-09-16T09:27:32.975Z,79.20
2017-09-16T09:30:00.558Z,78.90
2017-09-16T09:32:28.944Z,78.20
2017-09-16T09:34:56.577Z,78.20
2017-09-16T09:37:24.166Z,77.70
2017-09-16T09:39:51.772Z,77.00
2017-09-16T09:42:20.180Z,76.00
2017-09-16T09:44:47.767Z,76.00
2017-09-16T09:47:16.103Z,75.70
2017-09-16T09:49:45.123Z,75.70
2017-09-16T09:52:12.820Z,75.70
2017-09-16T09:54:41.506Z,76.50
2017-09-16T09:57:10.196Z,77.00
2017-09-16T09:59:38.666Z,76.20
2017-09-16T10:02:06.439Z,76.10
2017-09-16T10:04:34.154Z,76.80
2017-09-16T10:07:02.510Z,77.50
2017-09-16T10:09:31.040Z,77.40
2017-09-16T10:11:59.239Z,77.40
2017-09-16T10:14:28.070Z,78.20
2017-09-16T10:16:55.675Z,78.10
2017-09-16T10:19:23.866Z,78.00
2017-09-16T10:21:51.782Z,77.50
2017-09-16T10:24:19.804Z,77.50
2017-09-16T10:26:48.224Z,77.60
2017-09-16T10:29:16.752Z,77.50
2017-09-16T10:31:44.664Z,77.40
2017-09-16T10:34:13.717Z,78.20
2017-09-16T10:36:42.078Z,78.20
2017-09-16T10:39:10.067Z,78.20
2017-09-16T10:41:38.290Z,78.20
2017-09-16T10:44:06.724Z,78.20
2017-09-16T10:46:34.867Z,78.00
2017-09-16T10:49:02.853Z,78.10
2017-09-16T10:51:30.664Z,78.40
2017-09-16T10:53:58.456Z,78.80
2017-09-16T10:56:26.300Z,78.70
2017-09-16T10:58:54.416Z,79.00
2017-09-16T11:01:23.111Z,79.20
2017-09-16T11:03:51.220Z,80.60
2017-09-16T11:06:19.014Z,81.00
2017-09-16T11:08:46.959Z,80.30
2017-09-16T11:11:14.804Z,80.10
2017-09-16T11:13:43.217Z,79.30
2017-09-16T11:16:11.635Z,79.30
2017-09-16T11:18:40.880Z,80.40
2017-09-16T11:21:11.684Z,80.10
2017-09-16T11:23:39.350Z,80.00
2017-09-16T11:26:08.199Z,80.10
2017-09-16T11:28:36.099Z,80.10
2017-09-16T11:31:07.250Z,79.10
2017-09-16T11:33:35.177Z,79.10
2017-09-16T11:36:03.679Z,80.70
2017-09-16T11:38:31.467Z,80.60
2017-09-16T11:40:59.435Z,80.70
2017-09-16T11:43:28.219Z,80.40
2017-09-16T11:45:57.150Z,79.60
2017-09-16T11:48:26.033Z,79.40
2017-09-16T11:50:55.181Z,79.60
2017-09-16T11:53:23.083Z,79.90
2017-09-16T11:55:50.873Z,79.50
2017-09-16T11:58:18.486Z,79.70
2017-09-16T12:00:46.843Z,79.60
2017-09-16T12:03:15.497Z,79.40
2017-09-16T12:05:43.101Z,79.40
2017-09-16T12:08:10.692Z,79.40
2017-09-16T12:10:38.483Z,78.80
2017-09-16T12:13:06.088Z,79.00
2017-09-16T12:15:33.667Z,78.90
2017-09-16T12:18:01.325Z,78.80
2017-09-16T12:20:28.920Z,78.40
2017-09-16T12:22:57.280Z,78.30
2017-09-16T12:25:25.125Z,78.30
2017-09-16T12:27:52.711Z,78.20
2017-09-16T12:30:21.073Z,79.20
2017-09-16T12:32:49.488Z,79.50
2017-09-16T12:35:17.724Z,79.50
2017-09-16T12:37:45.314Z,80.60
2017-09-16T12:40:13.091Z,80.40
2017-09-16T12:42:41.251Z,80.70
2017-09-16T12:45:11.068Z,81.50
2017-09-16T12:47:39.399Z,82.30
2017-09-16T12:50:07.752Z,83.00
2017-09-16T12:52:36.116Z,83.30
2017-09-16T12:55:04.533Z,82.40
2017-09-16T12:57:32.113Z,82.40
2017-09-16T12:59:59.980Z,82.00
2017-09-16T13:02:27.686Z,81.40
2017-09-16T13:04:55.922Z,81.70
2017-09-16T13:07:23.522Z,82.20
2017-09-16T13:09:51.919Z,81.50
2017-09-16T13:12:19.514Z,81.50
2017-09-16T13:14:47.098Z,81.60
2017-09-16T13:17:14.745Z,81.30
2017-09-16T13:19:43.789Z,81.50
2017-09-16T13:22:12.264Z,80.90
2017-09-16T13:24:39.928Z,80.70
2017-09-16T13:27:07.527Z,80.40
2017-09-16T13:29:35.108Z,80.20
2017-09-16T13:32:02.973Z,80.20
2017-09-16T13:34:30.635Z,79.50
2017-09-16T13:36:58.224Z,78.00
2017-09-16T13:39:26.007Z,78.10
2017-09-16T13:41:53.642Z,77.00
2017-09-16T13:44:21.243Z,77.00
2017-09-16T13:46:48.892Z,77.00
2017-09-16T13:49:16.481Z,77.30
2017-09-16T13:51:44.064Z,76.80
2017-09-16T13:54:11.871Z,76.40
2017-09-16T13:56:39.473Z,76.30
2017-09-16T13:59:07.064Z,76.40
2017-09-16T14:01:34.922Z,75.60
2017-09-16T14:04:02.557Z,75.10
2017-09-16T14:06:30.169Z,75.40
2017-09-16T14:08:58.000Z,75.40
2017-09-16T14:11:26.361Z,74.20
2017-09-16T14:13:53.935Z,74.20
2017-09-16T14:16:23.064Z,72.00
2017-09-16T14:18:50.661Z,72.00
2017-09-16T14:21:18.252Z,71.50
2017-09-16T14:23:45.991Z,71.90
2017-09-16T14:26:13.584Z,72.20
2017-09-16T14:28:41.162Z,72.80
2017-09-16T14:31:08.955Z,72.10
2017-09-16T14:33:36.540Z,71.80
2017-09-16T14:36:04.900Z,72.40
2017-09-16T14:38:33.316Z,71.60
2017-09-16T14:41:00.887Z,72.00
2017-09-16T14:43:28.477Z,71.70
2017-09-16T14:45:56.247Z,72.20
2017-09-16T14:48:23.823Z,72.40
2017-09-16T14:50:52.283Z,71.80
2017-09-16T14:53:19.926Z,72.20
2017-09-16T14:55:49.028Z,72.30
2017-09-16T14:58:17.382Z,72.40
2017-09-16T15:00:45.113Z,72.30
2017-09-16T15:03:12.709Z,72.10
2017-09-16T15:05:40.291Z,72.50
2017-09-16T15:08:08.101Z,72.80
2017-09-16T15:10:35.705Z,72.90
2017-09-16T15:13:04.002Z,74.60
2017-09-16T15:15:31.642Z,74.20
2017-09-16T15:18:00.006Z,73.00
2017-09-16T15:20:28.366Z,73.50
2017-09-16T15:22:56.774Z,72.80
2017-09-16T15:25:24.359Z,72.80
2017-09-16T15:27:52.755Z,72.90
2017-09-16T15:30:20.387Z,72.90
2017-09-16T15:32:47.966Z,73.30
2017-09-16T15:35:16.154Z,73.70
2017-09-16T15:37:43.785Z,74.00
2017-09-16T15:40:11.395Z,73.00
2017-09-16T15:42:38.980Z,73.40
2017-09-16T15:45:07.514Z,75.00
2017-09-16T15:47:35.696Z,75.00
2017-09-16T15:50:03.271Z,74.30
2017-09-16T15:52:31.795Z,74.60
2017-09-16T15:54:59.372Z,74.50
2017-09-16T15:57:26.946Z,74.30
2017-09-16T15:59:54.603Z,74.40
2017-09-16T16:02:22.191Z,74.00
2017-09-16T16:04:49.766Z,74.90
2017-09-16T16:07:18.181Z,73.60
2017-09-16T16:09:45.777Z,73.50
2017-09-16T16:12:14.204Z,74.60
2017-09-16T16:14:42.006Z,74.60
2017-09-16T16:17:09.592Z,73.90
2017-09-16T16:19:37.192Z,74.00
2017-09-16T16:22:04.806Z,73.60
2017-09-16T16:24:32.392Z,73.60
2017-09-16T16:26:59.975Z,73.40
2017-09-16T16:29:28.393Z,74.30
2017-09-16T16:31:55.986Z,74.00
2017-09-16T16:34:23.758Z,73.80
2017-09-16T16:36:51.567Z,74.30
2017-09-16T16:39:19.146Z,73.90
2017-09-16T16:41:47.505Z,74.40
2017-09-16T16:44:16.149Z,75.60
2017-09-16T16:46:43.778Z,74.90
2017-09-16T16:49:11.386Z,75.60
2017-09-16T16:51:39.046Z,75.40
2017-09-16T16:54:06.659Z,75.80
2017-09-16T16:56:35.007Z,76.40
2017-09-16T16:59:02.636Z,76.30
2017-09-16T17:01:30.212Z,77.20
2017-09-16T17:03:58.572Z,77.50
2017-09-16T17:06:27.001Z,77.90
2017-09-16T17:08:54.597Z,77.90
2017-09-16T17:11:22.188Z,77.90
2017-09-16T17:13:49.910Z,78.30
2017-09-16T17:16:17.497Z,78.80
2017-09-16T17:18:45.093Z,78.80
2017-09-16T17:21:12.746Z,79.10
2017-09-16T17:23:40.353Z,79.30
2017-09-16T17:26:08.717Z,80.30
2017-09-16T17:28:37.123Z,80.70
2017-09-16T17:31:04.706Z,80.60
2017-09-16T17:33:32.286Z,80.30
2017-09-16T17:36:00.047Z,80.10
2017-09-16T17:38:27.735Z,80.20
2017-09-16T17:40:55.322Z,79.90
2017-09-16T17:43:23.063Z,80.10
2017-09-16T17:45:51.416Z,80.40
2017-09-16T17:48:19.772Z,80.70
2017-09-16T17:50:48.215Z,80.80
2017-09-16T17:53:15.817Z,80.80
2017-09-16T17:55:43.398Z,80.90
2017-09-16T17:58:11.031Z,80.70
2017-09-16T18:00:38.615Z,80.90
2017-09-16T18:03:06.957Z,82.00
2017-09-16T18:05:34.584Z,81.20
2017-09-16T18:08:02.171Z,81.20
2017-09-16T18:10:30.506Z,81.30
2017-09-16T18:12:58.170Z,81.10
2017-09-16T18:15:26.529Z,81.40
2017-09-16T18:17:54.116Z,81.40
2017-09-16T18:20:21.755Z,81.70
2017-09-16T18:22:49.340Z,81.90
2017-09-16T18:25:16.910Z,82.00
2017-09-16T18:27:45.312Z,82.50
2017-09-16T18:30:12.901Z,83.20
2017-09-16T18:32:40.483Z,82.50
2017-09-16T18:35:08.116Z,82.70
2017-09-16T18:37:36.464Z,83.00
2017-09-16T18:40:04.806Z,83.60
2017-09-16T18:42:32.456Z,83.10
2017-09-16T18:45:00.106Z,83.20
2017-09-16T18:47:27.693Z,83.40
2017-09-16T18:49:55.335Z,83.70
2017-09-16T18:52:22.920Z,83.80
2017-09-16T18:54:50.517Z,83.90
2017-09-16T18:57:18.292Z,83.90
2017-09-16T18:59:45.886Z,84.00
2017-09-16T19:02:13.609Z,84.10
2017-09-16T19:04:41.242Z,84.30
2017-09-16T19:07:08.900Z,84.30
2017-09-16T19:09:36.474Z,84.30
2017-09-16T19:12:04.881Z,84.60
2017-09-16T19:14:32.550Z,84.60
2017-09-16T19:17:00.126Z,84.50
2017-09-16T19:19:28.558Z,85.10
2017-09-16T19:21:56.902Z,84.90
2017-09-16T19:24:24.505Z,85.50
2017-09-16T19:26:53.034Z,85.00
2017-09-16T19:29:20.629Z,84.90
2017-09-16T19:31:48.216Z,84.80
2017-09-16T19:34:15.999Z,84.60
2017-09-16T19:36:44.356Z,85.50
2017-09-16T19:39:12.723Z,85.10
2017-09-16T19:41:41.123Z,85.10
2017-09-16T19:44:08.721Z,85.10
2017-09-16T19:46:36.299Z,85.20
2017-09-16T19:49:03.935Z,85.20
2017-09-16T19:51:32.292Z,85.30
2017-09-16T19:53:59.867Z,85.30
2017-09-16T19:56:27.494Z,85.30
2017-09-16T19:58:55.082Z,85.40
2017-09-16T20:01:22.673Z,85.30
2017-09-16T20:03:51.081Z,86.60
2017-09-16T20:06:18.681Z,86.50
2017-09-16T20:08:46.333Z,86.10
2017-09-16T20:11:13.987Z,86.20
2017-09-16T20:13:41.563Z,86.80
2017-09-16T20:16:09.142Z,87.10
2017-09-16T20:18:36.903Z,87.40
2017-09-16T20:21:05.252Z,88.00
2017-09-16T20:23:33.612Z,87.50
2017-09-16T20:26:01.248Z,87.50
2017-09-16T20:28:28.842Z,87.30
2017-09-16T20:30:56.440Z,87.30
2017-09-16T20:33:24.109Z,87.30
2017-09-16T20:35:52.451Z,88.00
2017-09-16T20:38:20.817Z,88.30
2017-09-16T20:40:49.227Z,88.10
2017-09-16T20:43:16.821Z,88.10
2017-09-16T20:45:45.188Z,88.00
2017-09-16T20:48:13.596Z,88.60
2017-09-16T20:50:41.175Z,87.70
2017-09-16T20:53:08.754Z,87.80
2017-09-16T20:55:37.318Z,87.70
2017-09-16T20:58:05.663Z,87.80
2017-09-16T21:00:33.256Z,87.80
2017-09-16T21:03:00.882Z,87.70
2017-09-16T21:05:28.496Z,87.70
2017-09-16T21:07:56.289Z,87.70
2017-09-16T21:10:24.015Z,87.80
2017-09-16T21:12:51.610Z,87.80
2017-09-16T21:15:19.209Z,87.80
2017-09-16T21:17:46.853Z,88.00
2017-09-16T21:20:14.450Z,87.90
2017-09-16T21:22:42.034Z,88.10
2017-09-16T21:25:10.637Z,88.00
2017-09-16T21:27:38.223Z,87.90
2017-09-16T21:30:06.579Z,88.00
2017-09-16T21:32:34.365Z,87.90
2017-09-16T21:35:01.943Z,87.90
2017-09-16T21:37:29.555Z,88.20
2017-09-16T21:39:57.302Z,88.20
2017-09-16T21:42:24.880Z,88.10
2017-09-16T21:44:52.455Z,87.90
2017-09-16T21:47:20.231Z,88.20
2017-09-16T21:49:48.574Z,88.30
2017-09-16T21:52:17.950Z,88.00
2017-09-16T21:54:46.361Z,87.50
2017-09-16T21:57:13.939Z,87.50
2017-09-16T21:59:41.530Z,87.10
2017-09-16T22:02:09.275Z,86.90
2017-09-16T22:04:36.868Z,87.30
2017-09-16T22:07:04.470Z,87.20
2017-09-16T22:09:32.099Z,87.10
2017-09-16T22:11:59.687Z,87.20
2017-09-16T22:14:27.288Z,87.40
2017-09-16T22:16:55.788Z,87.30
2017-09-16T22:19:23.374Z,87.30
2017-09-16T22:21:50.973Z,87.90
2017-09-16T22:24:18.637Z,87.40
2017-09-16T22:26:46.232Z,87.70
2017-09-16T22:29:14.597Z,87.90
2017-09-16T22:31:43.004Z,87.70
2017-09-16T22:34:10.600Z,87.70
2017-09-16T22:36:38.964Z,87.50
2017-09-16T22:39:07.391Z,87.70
2017-09-16T22:41:34.967Z,87.70
2017-09-16T22:44:03.324Z,88.20
2017-09-16T22:46:31.267Z,88.20
2017-09-16T22:48:58.917Z,88.50
2017-09-16T22:51:28.013Z,88.30
2017-09-16T22:53:56.433Z,88.40
2017-09-16T22:56:24.018Z,88.50
2017-09-16T22:58:52.390Z,88.60
2017-09-16T23:01:20.156Z,88.50
2017-09-16T23:03:47.752Z,88.50
2017-09-16T23:06:15.350Z,89.20
2017-09-16T23:08:43.139Z,88.60
2017-09-16T23:11:11.517Z,88.60
2017-09-16T23:13:39.866Z,88.20
2017-09-16T23:16:07.661Z,88.30
2017-09-16T23:18:35.252Z,88.50
2017-09-16T23:21:02.840Z,88.20
2017-09-16T23:23:30.701Z,87.90
2017-09-16T23:25:58.283Z,87.80
2017-09-16T23:28:25.869Z,87.80
2017-09-16T23:30:54.263Z,87.80
2017-09-16T23:33:21.846Z,87.80
2017-09-16T23:35:49.419Z,88.00
2017-09-16T23:38:17.838Z,88.00
2017-09-16T23:40:45.432Z,88.00
2017-09-16T23:43:13.025Z,88.00
2017-09-16T23:45:40.673Z,87.90
2017-09-16T23:48:08.269Z,88.10
2017-09-16T23:50:35.855Z,88.30
2017-09-16T23:53:03.482Z,88.70
2017-09-16T23:55:31.073Z,88.60
2017-09-16T23:57:58.653Z,88.60
